Aplicació Alertes

Dades de l'estació automàtica Falset

?
?
Resum diari 23:00 TU
Dades diàries de l'estació meteorològica
Temperatura mitjana 8.2 °C
Temperatura màxima 14.9 °C 14:16 TU
Temperatura mínima 3.1 °C 6:45 TU
Humitat relativa mitjana 65%
Precipitació acumulada 0.0 mm
Ratxa màxima del vent (10 m) 23.4 km/h - 280º 10:50 TU
Pressió atmosfèrica mitjana 1023.3 hPa
Irradiació solar global 10.9 MJ/m2

El tram horari està expressat en Temps Universal (TU). Cal sumar una hora en horari d'hivern i dues en horari d'estiu per passar a l'hora oficial.

Falset

Metadades estació meteorol´gica
Municipi Falset
Comarca Priorat
Altitud 359 m
Data alta 20.12.2006
Estat actual Operativa
Dades de període
Període
TU
TM
°C
TX
°C
TN
°C
HRM
%
PPT
mm
VVM (10 m)
km/h
DVM (10 m)
graus
VVX (10 m)
km/h
PM
hPa
RS
W/m2
00:00 - 00:30 6.2 6.6 5.8 80 0.0 2.2 66 6.1 1023.4 2
00:30 - 01:00 6.8 7.1 6.4 78 0.0 4.0 45 7.6 1023.0 2
01:00 - 01:30 6.0 6.5 5.7 81 0.0 3.6 50 6.1 1023.2 2
01:30 - 02:00 5.9 6.2 5.4 81 0.0 4.0 65 7.2 1023.3 2
02:00 - 02:30 5.7 6.1 5.1 82 0.0 3.6 39 5.8 1023.5 2
02:30 - 03:00 5.3 5.6 4.8 83 0.0 3.2 64 6.1 1023.5 2
03:00 - 03:30 5.2 5.6 4.6 83 0.0 3.6 58 6.1 1023.4 2
03:30 - 04:00 5.1 5.7 4.7 83 0.0 2.5 79 6.1 1023.4 2
04:00 - 04:30 4.9 5.3 4.6 84 0.0 3.2 23 10.1 1023.5 2
04:30 - 05:00 4.3 4.5 3.9 86 0.0 3.6 15 7.6 1023.6 2
05:00 - 05:30 3.8 4.0 3.7 88 0.0 1.8 31 6.5 1023.6 2
05:30 - 06:00 4.3 4.8 3.6 85 0.0 2.2 55 5.8 1023.6 2
06:00 - 06:30 3.4 3.8 3.1 88 0.0 2.9 49 6.1 1023.9 2
06:30 - 07:00 3.4 3.8 3.1 89 0.0 4.0 75 7.9 1024.3 9
07:00 - 07:30 4.2 4.6 3.8 87 0.0 4.3 62 7.2 1024.5 29
07:30 - 08:00 5.3 6.8 3.9 83 0.0 2.9 353 8.3 1024.7 91
08:00 - 08:30 7.3 8.2 6.2 76 0.0 2.2 77 6.5 1024.4 181
08:30 - 09:00 9.0 10.0 8.1 68 0.0 3.6 339 8.3 1024.2 272
09:00 - 09:30 10.3 10.9 9.5 62 0.0 7.2 320 13.0 1024.1 345
09:30 - 10:00 10.8 11.3 10.4 60 0.0 7.9 287 16.6 1024.0 402
10:00 - 10:30 11.0 11.3 10.7 58 0.0 11.9 271 21.6 1024.0 430
10:30 - 11:00 11.5 11.9 10.9 55 0.0 13.0 284 23.4 1023.8 486
11:00 - 11:30 11.7 12.1 11.4 54 0.0 10.8 250 19.4 1023.4 511
11:30 - 12:00 12.0 12.4 11.5 53 0.0 10.1 244 17.6 1023.0 519
12:00 - 12:30 12.7 13.4 12.3 52 0.0 9.0 248 17.3 1022.6 511
12:30 - 13:00 13.1 13.7 12.6 51 0.0 9.7 233 18.4 1022.2 487
13:00 - 13:30 13.6 14.1 13.3 51 0.0 9.4 252 18.4 1021.7 449
13:30 - 14:00 13.9 14.2 13.6 50 0.0 10.4 239 19.1 1021.4 399
14:00 - 14:30 14.5 14.9 13.9 48 0.0 8.3 261 15.1 1021.2 334
14:30 - 15:00 14.2 14.5 13.9 48 0.0 9.0 256 17.3 1021.4 262
15:00 - 15:30 13.6 14.0 13.3 49 0.0 7.9 249 15.5 1021.5 182
15:30 - 16:00 12.7 13.3 12.3 50 0.0 6.1 255 12.2 1021.6 71
16:00 - 16:30 11.8 12.2 11.0 51 0.0 4.7 245 8.6 1021.8 23
16:30 - 17:00 10.1 10.9 9.1 55 0.0 3.6 226 6.1 1022.1 4
17:00 - 17:30 8.5 9.1 7.9 61 0.0 6.5 95 10.4 1022.6 2
17:30 - 18:00 7.9 8.2 7.6 62 0.0 8.3 101 10.8 1022.9 2
18:00 - 18:30 7.5 7.8 7.3 61 0.0 5.8 112 8.3 1023.2 2
18:30 - 19:00 7.5 7.8 7.3 56 0.0 6.8 106 9.7 1023.3 2
19:00 - 19:30 7.6 7.9 7.4 54 0.0 7.2 103 10.1 1023.5 2
19:30 - 20:00 7.4 7.7 7.2 56 0.0 9.4 100 11.5 1023.7 2
20:00 - 20:30 7.4 7.5 7.2 53 0.0 7.6 101 11.2 1023.9 2
20:30 - 21:00 7.3 7.6 7.1 51 0.0 7.2 105 9.4 1024.1 2
21:00 - 21:30 7.4 7.9 7.1 49 0.0 6.5 85 9.0 1024.1 2
21:30 - 22:00 7.0 7.8 6.5 50 0.0 6.1 84 9.0 1024.3 2
22:00 - 22:30 6.5 7.0 6.1 53 0.0 5.0 75 7.2 1024.4 2
22:30 - 23:00 5.7 5.9 5.6 57 0.0 6.5 105 8.6 1024.6 2
23:00 - 23:30 5.9 6.2 5.7 57 0.0 7.2 97 10.1 1024.6 2

Les dades en taronja només han passat un control de qualitat automàtic. Resta pendent la seva validació definitiva.